Terminal Aerodrome Forecast
Issued by NWS

Home | Current Version | Previous Version | Graphics & Text | Print | Product List | Glossary On
Versions: 1 2 3 4 5 6 7 8 9 10 11 12 13 14 15 16 17 18 19 20 21
000
FTUS41 KCLE 190500
TAFFDY
TAF
KFDY 190520Z 1906/2006 34005KT P6SM OVC035
      TEMPO 1907/1909 SCT035
     FM190900 31004KT P6SM SCT035
     FM191500 27006KT P6SM SKC
     FM192200 22008KT P6SM SKC
     FM200200 20006KT P6SM BKN250=

USA.gov is the U.S. government's official web portal to all federal, state and local government web resources and services.